Time;durP1;ratioP1;P1;durP2;ratioP2;P2;SDS_P1;SDS_P2;PMS_P1;PMS_P2;Temp;Humidity;BMP_temperature;BMP_pressure;BME280_temperature;BME280_humidity;BME280_pressure;Samples;Min_cycle;Max_cycle;Signal;HPM_P1;HPM_P2
2022/08/06 00:02:13;;;;;;;5.60;2.33;;;;;;;15.57;58.81;100511.56;5031435;28;20064;-67
2022/08/06 00:04:40;;;;;;;6.75;2.20;;;;;;;15.49;59.36;100513.81;5029256;28;20045;-69
2022/08/06 00:07:06;;;;;;;4.20;2.30;;;;;;;15.37;60.79;100507.41;5031204;28;20041;-68
2022/08/06 00:09:33;;;;;;;7.47;2.58;;;;;;;15.13;63.51;100510.50;5031255;28;20057;-68
2022/08/06 00:12:01;;;;;;;6.22;2.38;;;;;;;14.97;63.29;100514.97;5031307;28;20556;-67
2022/08/06 00:14:28;;;;;;;4.22;2.08;;;;;;;14.81;63.79;100526.44;5027061;28;20054;-68
2022/08/06 00:16:55;;;;;;;6.45;2.20;;;;;;;14.65;64.42;100522.06;5030863;28;20171;-67
2022/08/06 00:19:23;;;;;;;4.60;2.38;;;;;;;14.47;65.00;100523.88;5031008;28;20129;-68
2022/08/06 00:21:50;;;;;;;3.63;2.08;;;;;;;14.33;65.67;100529.94;5031149;28;20056;-67
2022/08/06 00:24:17;;;;;;;3.85;2.20;;;;;;;14.22;66.32;100529.63;5030437;28;20714;-68
2022/08/06 00:26:44;;;;;;;5.75;2.20;;;;;;;14.04;67.39;100529.63;5030878;28;20056;-67
2022/08/06 00:29:12;;;;;;;3.80;2.50;;;;;;;13.92;68.28;100531.13;5031030;28;20436;-67
2022/08/06 00:31:38;;;;;;;4.40;2.08;;;;;;;13.80;68.02;100529.09;5030792;28;20076;-67
2022/08/06 00:34:05;;;;;;;4.10;2.05;;;;;;;13.73;68.66;100525.03;5030169;28;20080;-67
2022/08/06 00:36:32;;;;;;;8.27;3.95;;;;;;;13.68;68.85;100533.25;5030957;28;20053;-68
2022/08/06 00:39:00;;;;;;;9.23;4.38;;;;;;;13.62;69.50;100533.53;5030617;28;20060;-67
2022/08/06 00:41:28;;;;;;;14.45;10.55;;;;;;;13.53;69.79;100549.88;5030863;28;20045;-67
2022/08/06 00:43:56;;;;;;;6.75;4.40;;;;;;;13.38;70.89;100540.03;5030288;28;20050;-66
2022/08/06 00:46:24;;;;;;;10.13;3.83;;;;;;;13.36;70.63;100545.41;5030674;28;20622;-67
2022/08/06 00:48:50;;;;;;;21.70;6.53;;;;;;;13.32;70.57;100541.22;5025217;28;20516;-70
2022/08/06 00:51:17;;;;;;;6.85;3.72;;;;;;;13.26;71.35;100547.59;5029015;28;20132;-67
2022/08/06 00:53:44;;;;;;;18.42;11.90;;;;;;;13.21;71.28;100539.03;5030681;28;20159;-68
2022/08/06 00:56:11;;;;;;;7.20;2.60;;;;;;;13.04;72.11;100537.22;5029701;28;20058;-69
2022/08/06 00:58:38;;;;;;;5.53;2.90;;;;;;;13.01;72.19;100533.84;5030450;28;20049;-67
2022/08/06 01:01:05;;;;;;;6.53;2.55;;;;;;;12.98;72.30;100541.94;5030479;28;20234;-67
2022/08/06 01:03:33;;;;;;;5.50;2.35;;;;;;;12.94;72.09;100543.84;5031140;28;20048;-67
2022/08/06 01:05:59;;;;;;;6.07;2.42;;;;;;;12.87;72.89;100540.66;5030473;28;20049;-67
2022/08/06 01:08:26;;;;;;;6.72;2.20;;;;;;;12.80;72.56;100541.84;5015705;28;20490;-69
2022/08/06 01:10:52;;;;;;;3.40;2.15;;;;;;;12.78;73.49;100542.84;5010328;28;20050;-66
2022/08/06 01:13:19;;;;;;;4.35;2.00;;;;;;;12.79;73.29;100548.06;5010136;28;20494;-67
2022/08/06 01:15:52;;;;;;;7.80;3.03;;;;;;;12.76;73.72;100548.22;5009584;28;20050;-67
2022/08/06 01:18:24;;;;;;;3.83;1.90;;;;;;;12.75;73.52;100550.91;5010322;28;20057;-66
2022/08/06 01:21:11;;;;;;;13.23;3.28;;;;;;;12.79;73.70;100557.78;5010438;28;20046;-66
2022/08/06 01:23:49;;;;;;;6.82;2.30;;;;;;;12.74;73.69;100557.16;5010454;28;20048;-67
2022/08/06 01:26:29;;;;;;;9.38;3.60;;;;;;;12.59;74.88;100562.19;5013454;28;20049;-67
2022/08/06 01:29:03;;;;;;;3.50;2.45;;;;;;;12.57;74.30;100560.56;5030445;28;20144;-67
2022/08/06 01:31:35;;;;;;;4.57;2.33;;;;;;;12.50;74.54;100565.25;5046986;28;20531;-65
2022/08/06 01:34:10;;;;;;;3.10;1.67;;;;;;;12.71;74.09;100563.44;5051243;28;20132;-56
2022/08/06 01:36:41;;;;;;;4.33;2.57;;;;;;;12.81;72.80;100577.09;5051300;28;20052;-51
2022/08/06 01:39:11;;;;;;;5.40;2.92;;;;;;;12.64;73.12;100577.88;5051030;28;20322;-53
2022/08/06 01:41:42;;;;;;;5.03;2.58;;;;;;;12.42;73.87;100578.81;5050672;28;20053;-55
2022/08/06 01:44:12;;;;;;;6.00;2.65;;;;;;;12.34;75.08;100580.09;5050082;28;20053;-52
2022/08/06 01:46:43;;;;;;;4.30;1.90;;;;;;;12.27;74.87;100573.34;5027197;28;20053;-55
2022/08/06 01:49:11;;;;;;;6.28;3.08;;;;;;;12.19;75.25;100573.69;5030590;28;20053;-51
2022/08/06 01:51:39;;;;;;;6.70;3.20;;;;;;;12.11;75.30;100579.31;5030430;28;20041;-49
2022/08/06 01:54:10;;;;;;;8.25;2.92;;;;;;;12.07;75.69;100579.50;5029808;28;20049;-55
2022/08/06 01:56:40;;;;;;;6.93;2.25;;;;;;;12.26;74.56;100569.88;5029926;28;20126;-55
2022/08/06 01:59:09;;;;;;;5.25;2.40;;;;;;;12.23;74.72;100580.53;5029862;28;20080;-53
2022/08/06 02:01:37;;;;;;;9.30;2.67;;;;;;;12.11;75.14;100584.59;5029943;28;20418;-55
2022/08/06 02:04:05;;;;;;;4.60;2.35;;;;;;;12.10;75.46;100579.38;5029528;28;20056;-54
2022/08/06 02:06:35;;;;;;;8.15;2.38;;;;;;;12.27;74.44;100574.22;5029500;28;20049;-50
2022/08/06 02:09:05;;;;;;;4.47;2.58;;;;;;;12.22;73.80;100579.69;5029159;28;20417;-54
2022/08/06 02:11:35;;;;;;;5.18;2.80;;;;;;;11.99;74.94;100585.13;5029558;28;20103;-52
2022/08/06 02:14:03;;;;;;;3.63;2.10;;;;;;;11.86;75.73;100584.72;5029296;28;20050;-50
2022/08/06 02:16:33;;;;;;;5.97;2.33;;;;;;;12.02;75.50;100584.97;5029898;28;20057;-53
2022/08/06 02:19:03;;;;;;;4.25;2.20;;;;;;;12.19;74.52;100581.63;5026425;28;20046;-51
2022/08/06 02:21:32;;;;;;;5.07;2.90;;;;;;;12.17;74.08;100584.31;5029987;28;20405;-55
2022/08/06 02:24:03;;;;;;;7.40;3.10;;;;;;;12.02;75.29;100587.63;5029414;28;20052;-55
2022/08/06 02:26:31;;;;;;;4.60;2.17;;;;;;;12.13;75.47;100590.66;5029355;28;20437;-52
2022/08/06 02:29:01;;;;;;;5.13;1.92;;;;;;;12.32;73.89;100590.72;5029615;28;20136;-55
2022/08/06 02:31:27;;;;;;;4.10;2.20;;;;;;;12.35;73.59;100593.22;5029679;28;20698;-50
2022/08/06 02:33:54;;;;;;;4.82;2.03;;;;;;;12.16;73.71;100592.34;5029492;28;20559;-54
2022/08/06 02:36:26;;;;;;;6.50;2.38;;;;;;;11.89;74.86;100589.94;5030030;28;20053;-51
2022/08/06 02:38:56;;;;;;;7.00;2.10;;;;;;;11.80;75.77;100588.50;5029808;28;20049;-54
2022/08/06 02:41:30;;;;;;;3.08;2.00;;;;;;;11.83;75.40;100591.00;5029901;28;20060;-55
2022/08/06 02:44:03;;;;;;;6.22;2.50;;;;;;;11.81;75.57;100587.59;5029283;28;20052;-51
2022/08/06 02:46:38;;;;;;;7.28;2.65;;;;;;;11.82;75.93;100583.16;5029469;28;20057;-52
2022/08/06 02:49:10;;;;;;;6.78;2.80;;;;;;;12.07;74.80;100592.72;5029454;28;20133;-49
2022/08/06 02:51:42;;;;;;;9.50;2.58;;;;;;;12.08;74.75;100592.63;5029921;28;20053;-54
2022/08/06 02:54:14;;;;;;;7.28;2.20;;;;;;;12.08;73.87;100594.44;5029020;28;20137;-52
2022/08/06 02:56:45;;;;;;;8.38;3.35;;;;;;;11.95;74.16;100592.31;5012432;28;20061;-51
2022/08/06 02:59:14;;;;;;;4.97;2.50;;;;;;;11.65;75.72;100591.75;5009575;28;20049;-54
2022/08/06 03:01:44;;;;;;;5.20;2.78;;;;;;;11.44;76.13;100603.19;5009296;28;20513;-52
2022/08/06 03:04:12;;;;;;;10.60;2.42;;;;;;;11.36;77.23;100599.06;5009035;28;20137;-54
2022/08/06 03:06:43;;;;;;;8.02;3.03;;;;;;;11.32;77.41;100593.97;5009393;28;20432;-50
2022/08/06 03:09:12;;;;;;;5.30;2.70;;;;;;;11.15;77.49;100600.78;5009601;28;20065;-55
2022/08/06 03:11:40;;;;;;;6.05;2.38;;;;;;;11.10;78.66;100602.72;5009286;28;20052;-49
2022/08/06 03:14:09;;;;;;;3.47;2.00;;;;;;;11.17;78.29;100600.69;5008690;28;20054;-55
2022/08/06 03:16:37;;;;;;;7.45;2.20;;;;;;;11.13;78.04;100596.47;5009674;28;20054;-54
2022/08/06 03:19:05;;;;;;;8.30;3.72;;;;;;;11.24;77.19;100601.31;5009403;28;20089;-49
2022/08/06 03:21:35;;;;;;;5.78;2.70;;;;;;;11.17;77.29;100600.69;5009425;28;20053;-53
2022/08/06 03:24:05;;;;;;;5.70;2.05;;;;;;;11.27;77.46;100607.38;5008776;28;20045;-48
2022/08/06 03:26:33;;;;;;;5.35;2.38;;;;;;;11.38;76.04;100605.16;5021217;28;20505;-51
2022/08/06 03:29:00;;;;;;;7.50;2.88;;;;;;;11.22;76.84;100595.25;5049368;28;20049;-55
2022/08/06 03:31:28;;;;;;;4.47;2.20;;;;;;;11.09;77.80;100602.78;5049200;28;20049;-51
2022/08/06 03:33:55;;;;;;;10.43;2.50;;;;;;;11.07;78.20;100596.69;5048525;28;20512;-51
2022/08/06 03:36:24;;;;;;;4.28;2.05;;;;;;;11.15;77.57;100611.34;5049134;28;20556;-51
2022/08/06 03:38:54;;;;;;;3.67;2.25;;;;;;;11.18;77.61;100605.94;5032465;28;20061;-52
2022/08/06 03:41:23;;;;;;;3.15;1.90;;;;;;;11.24;76.87;100606.59;5032797;28;20064;-50
2022/08/06 03:43:49;;;;;;;5.68;3.00;;;;;;;11.26;76.86;100605.63;5032615;28;20600;-52
2022/08/06 03:46:28;;;;;;;4.15;2.17;;;;;;;11.32;75.92;100605.41;5032510;28;20420;-53
2022/08/06 03:48:59;;;;;;;7.38;2.60;;;;;;;11.33;76.32;100596.56;5032918;28;20056;-55
2022/08/06 03:51:28;;;;;;;3.78;2.28;;;;;;;11.35;75.88;100599.16;5032814;28;20057;-53
2022/08/06 03:53:59;;;;;;;5.28;2.30;;;;;;;11.35;76.03;100601.78;5032076;28;20383;-54
2022/08/06 03:56:29;;;;;;;4.00;2.65;;;;;;;11.35;75.30;100607.06;5032654;28;20057;-53
2022/08/06 03:59:03;;;;;;;8.65;2.60;;;;;;;11.27;75.67;100607.38;5032247;28;20123;-50
2022/08/06 04:01:35;;;;;;;4.47;2.15;;;;;;;11.31;75.29;100608.09;5032460;28;20052;-48
2022/08/06 04:04:02;;;;;;;6.05;2.20;;;;;;;11.29;75.59;100616.06;5031224;28;20386;-56
2022/08/06 04:06:30;;;;;;;8.82;2.70;;;;;;;11.20;76.40;100618.19;5031295;28;20061;-52
2022/08/06 04:08:58;;;;;;;6.63;2.90;;;;;;;11.04;76.22;100623.22;5013640;28;20061;-55
2022/08/06 04:11:25;;;;;;;4.60;2.60;;;;;;;11.02;76.18;100633.81;5012364;28;20052;-51
2022/08/06 04:13:54;;;;;;;5.57;2.88;;;;;;;10.93;77.78;100626.25;5011679;28;20741;-55
2022/08/06 04:16:21;;;;;;;4.70;2.15;;;;;;;11.01;76.79;100636.53;5012227;28;20437;-51
2022/08/06 04:18:49;;;;;;;7.60;2.50;;;;;;;11.07;76.35;100629.22;5011856;28;20045;-52
2022/08/06 04:21:20;;;;;;;4.95;2.08;;;;;;;10.89;76.85;100628.13;5012305;28;20492;-54
2022/08/06 04:23:46;;;;;;;4.80;2.45;;;;;;;10.98;76.91;100629.59;5013299;28;20041;-52
2022/08/06 04:26:17;;;;;;;4.53;3.00;;;;;;;11.12;76.24;100629.03;5015081;28;20041;-50
2022/08/06 04:28:47;;;;;;;6.00;2.53;;;;;;;11.19;75.77;100627.91;5031576;28;20485;-55
2022/08/06 04:31:15;;;;;;;6.55;3.10;;;;;;;11.23;74.84;100633.94;5031701;28;20101;-55
2022/08/06 04:33:42;;;;;;;4.97;2.38;;;;;;;11.20;75.29;100637.56;5031611;28;20052;-52
2022/08/06 04:36:10;;;;;;;4.25;2.10;;;;;;;11.21;75.54;100643.69;5031182;28;20056;-51
2022/08/06 04:38:37;;;;;;;4.75;2.63;;;;;;;11.18;75.53;100645.53;5031791;28;20060;-51
2022/08/06 04:41:04;;;;;;;3.30;2.00;;;;;;;11.17;75.47;100643.81;5031851;28;20049;-51
2022/08/06 04:43:31;;;;;;;9.43;3.10;;;;;;;11.17;75.57;100649.09;5031561;28;20045;-53
2022/08/06 04:45:58;;;;;;;5.10;2.70;;;;;;;11.21;75.23;100651.59;5030966;28;20045;-51
2022/08/06 04:48:27;;;;;;;4.00;2.30;;;;;;;11.34;74.71;100660.75;5031974;28;20053;-55
2022/08/06 04:50:54;;;;;;;7.97;2.80;;;;;;;11.48;74.67;100657.59;5031032;28;20410;-53
2022/08/06 04:53:22;;;;;;;4.95;2.47;;;;;;;11.47;73.88;100667.31;5031594;28;20056;-50
2022/08/06 04:55:49;;;;;;;8.25;3.17;;;;;;;11.44;74.71;100661.28;5030792;28;20417;-56
2022/08/06 04:58:17;;;;;;;5.40;2.70;;;;;;;11.55;73.91;100667.84;5031415;28;20049;-52
2022/08/06 05:00:45;;;;;;;6.82;2.22;;;;;;;11.52;74.43;100665.34;5031655;28;20050;-53
2022/08/06 05:03:12;;;;;;;9.27;3.40;;;;;;;11.57;74.57;100671.31;5031540;28;20053;-54
2022/08/06 05:05:44;;;;;;;5.97;2.13;;;;;;;11.65;73.73;100673.66;5026520;28;20430;-49
2022/08/06 05:08:12;;;;;;;6.38;2.97;;;;;;;11.74;73.86;100670.66;5011412;28;20053;-56
2022/08/06 05:10:45;;;;;;;6.88;2.63;;;;;;;11.81;73.41;100684.44;5011313;28;20050;-53
2022/08/06 05:13:15;;;;;;;5.97;2.75;;;;;;;11.86;73.66;100679.84;5011055;28;20564;-50
2022/08/06 05:15:46;;;;;;;5.18;2.55;;;;;;;11.91;73.60;100680.56;5010401;28;20042;-68
2022/08/06 05:18:15;;;;;;;5.63;2.33;;;;;;;11.87;73.56;100684.25;5011127;28;20045;-68
2022/08/06 05:20:49;;;;;;;4.78;2.80;;;;;;;11.83;74.31;100680.81;5011007;28;20050;-68
2022/08/06 05:23:19;;;;;;;7.53;2.78;;;;;;;11.85;74.60;100682.56;5010702;28;20060;-68
2022/08/06 05:25:46;;;;;;;100.45;64.18;;;;;;;11.83;74.91;100683.47;5010658;28;20052;-67
2022/08/06 05:28:13;;;;;;;7.68;3.53;;;;;;;11.83;75.41;100688.75;5030696;28;20045;-69
2022/08/06 05:30:44;;;;;;;7.68;3.47;;;;;;;11.93;75.38;100686.63;5030231;28;20045;-67
2022/08/06 05:33:10;;;;;;;7.72;2.83;;;;;;;11.98;75.70;100686.44;5030488;28;20060;-67
2022/08/06 05:35:37;;;;;;;5.15;2.40;;;;;;;12.06;75.62;100692.31;5029878;28;20510;-66
2022/08/06 05:38:05;;;;;;;5.78;2.30;;;;;;;12.19;75.23;100692.66;5030240;28;20403;-67
2022/08/06 05:40:35;;;;;;;5.43;2.78;;;;;;;12.24;74.99;100686.25;5030367;28;20049;-67
2022/08/06 05:43:01;;;;;;;4.72;2.67;;;;;;;12.31;74.92;100691.28;5030287;28;20057;-67
2022/08/06 05:45:28;;;;;;;6.18;3.22;;;;;;;12.38;75.10;100692.72;5029651;28;20042;-68
2022/08/06 05:47:56;;;;;;;8.68;3.63;;;;;;;12.48;75.62;100702.00;5030201;28;20505;-67
2022/08/06 05:50:29;;;;;;;5.72;3.20;;;;;;;12.54;74.43;100700.88;5030188;28;20402;-67
2022/08/06 05:53:00;;;;;;;7.78;3.25;;;;;;;12.61;75.10;100699.69;5030387;28;20056;-67
2022/08/06 05:55:40;;;;;;;7.03;3.00;;;;;;;12.73;75.17;100706.25;5029569;28;20132;-67
2022/08/06 05:58:11;;;;;;;5.82;3.30;;;;;;;12.82;75.30;100703.19;5030214;28;20125;-67
2022/08/06 06:00:40;;;;;;;9.50;3.20;;;;;;;12.95;74.48;100696.44;5029239;28;20053;-66
2022/08/06 06:03:10;;;;;;;9.23;4.03;;;;;;;13.07;74.80;100693.25;5029190;28;20053;-66
2022/08/06 06:05:37;;;;;;;8.30;3.38;;;;;;;13.22;74.14;100701.44;5029517;28;20050;-66
2022/08/06 06:08:06;;;;;;;7.38;3.10;;;;;;;13.31;74.18;100699.25;5031268;28;20056;-67
2022/08/06 06:10:34;;;;;;;11.10;4.07;;;;;;;13.42;71.91;100704.03;5029870;28;20050;-67
2022/08/06 06:13:02;;;;;;;8.05;3.15;;;;;;;13.57;71.38;100709.56;5029748;28;20099;-65
2022/08/06 06:15:29;;;;;;;7.57;3.78;;;;;;;13.70;71.53;100710.69;5029007;28;20045;-66
2022/08/06 06:18:08;;;;;;;13.48;4.15;;;;;;;13.80;71.13;100709.31;5029685;28;20049;-66
2022/08/06 06:20:47;;;;;;;6.88;3.28;;;;;;;13.91;70.33;100707.03;5029671;28;20046;-67
2022/08/06 06:23:18;;;;;;;5.78;3.20;;;;;;;14.04;70.19;100717.88;5029715;28;20049;-66
2022/08/06 06:25:56;;;;;;;5.93;3.30;;;;;;;14.14;70.34;100716.50;5028810;28;20128;-67
2022/08/06 06:28:29;;;;;;;9.43;3.13;;;;;;;14.25;69.56;100710.69;5024497;28;20074;-66
2022/08/06 06:31:02;;;;;;;6.90;3.10;;;;;;;14.35;69.21;100713.75;5029221;28;20045;-66
2022/08/06 06:33:38;;;;;;;8.45;3.53;;;;;;;14.46;69.06;100719.34;5027217;28;20056;-66
2022/08/06 06:36:16;;;;;;;10.60;3.22;;;;;;;14.58;68.45;100710.78;5008980;28;20358;-66
2022/08/06 06:38:52;;;;;;;12.40;3.22;;;;;;;14.70;68.20;100706.66;5010241;28;20052;-67
2022/08/06 06:41:28;;;;;;;7.78;2.95;;;;;;;14.80;67.63;100707.03;5009786;28;20061;-67
2022/08/06 06:44:04;;;;;;;11.70;4.03;;;;;;;14.90;67.45;100716.25;5009444;28;20050;-67
2022/08/06 06:46:37;;;;;;;10.88;3.08;;;;;;;15.02;67.03;100717.41;5009509;28;20634;-67
2022/08/06 06:49:10;;;;;;;11.38;4.13;;;;;;;15.09;66.43;100718.78;5009888;28;20057;-67
2022/08/06 06:51:42;;;;;;;9.27;3.85;;;;;;;15.21;66.27;100717.25;5009954;28;20065;-67
2022/08/06 06:54:13;;;;;;;19.27;4.00;;;;;;;15.24;65.96;100717.97;5009282;28;20045;-67
2022/08/06 06:56:46;;;;;;;17.42;3.85;;;;;;;15.40;65.95;100720.63;5009835;28;20127;-68
2022/08/06 06:59:18;;;;;;;9.02;2.97;;;;;;;15.56;64.80;100720.69;5008954;28;20056;-67
2022/08/06 07:01:46;;;;;;;11.20;3.30;;;;;;;15.67;65.12;100726.25;5009432;28;20054;-67
2022/08/06 07:04:15;;;;;;;12.32;3.60;;;;;;;15.78;64.89;100730.16;5008978;28;20640;-67
2022/08/06 07:06:46;;;;;;;7.53;3.67;;;;;;;15.75;64.11;100725.00;5009537;28;20513;-68
2022/08/06 07:09:18;;;;;;;11.48;3.00;;;;;;;15.88;64.00;100729.56;5009336;28;20061;-66
2022/08/06 07:11:49;;;;;;;7.15;2.75;;;;;;;16.03;64.17;100738.47;5009503;28;20699;-67
2022/08/06 07:14:19;;;;;;;9.95;3.05;;;;;;;15.98;63.96;100731.69;5011544;28;20076;-69
2022/08/06 07:16:47;;;;;;;12.20;3.55;;;;;;;16.04;63.62;100734.00;5015842;28;20071;-67
2022/08/06 07:19:14;;;;;;;6.55;2.70;;;;;;;16.19;63.04;100738.44;5021740;28;20501;-68
2022/08/06 07:21:42;;;;;;;9.02;3.13;;;;;;;16.41;63.17;100742.53;5033179;28;20050;-67
2022/08/06 07:24:11;;;;;;;11.43;3.13;;;;;;;16.62;62.47;100748.41;5025259;28;20700;-68
2022/08/06 07:26:38;;;;;;;7.25;2.78;;;;;;;16.81;61.43;100740.19;5032938;28;20124;-66
2022/08/06 07:29:09;;;;;;;7.32;2.70;;;;;;;16.94;61.55;100747.38;5033071;28;20051;-67
2022/08/06 07:31:37;;;;;;;11.43;3.03;;;;;;;17.01;61.06;100747.00;5032761;28;20085;-67
2022/08/06 07:34:04;;;;;;;6.03;3.08;;;;;;;17.11;60.55;100748.16;5032170;28;20049;-68
2022/08/06 07:36:33;;;;;;;7.47;2.88;;;;;;;17.17;60.42;100747.78;5032255;28;20107;-67
2022/08/06 07:39:04;;;;;;;7.82;2.47;;;;;;;17.48;58.92;100751.22;5032670;28;20054;-66
2022/08/06 07:41:35;;;;;;;7.68;3.67;;;;;;;17.62;57.88;100750.31;5032755;28;20149;-66
2022/08/06 07:44:04;;;;;;;6.68;2.53;;;;;;;17.69;57.29;100749.84;5032248;28;20045;-69
2022/08/06 07:46:38;;;;;;;8.30;2.58;;;;;;;17.69;57.32;100747.16;5042264;28;20042;-67
2022/08/06 07:49:07;;;;;;;9.52;2.10;;;;;;;17.55;57.46;100748.06;5040768;28;20053;-67
2022/08/06 07:51:41;;;;;;;8.90;2.10;;;;;;;17.88;56.94;100746.03;5042160;28;20064;-67
2022/08/06 07:54:09;;;;;;;4.90;2.00;;;;;;;18.16;56.90;100742.44;5042898;28;20053;-68
2022/08/06 07:56:38;;;;;;;5.40;2.53;;;;;;;18.47;55.45;100740.41;5037949;28;20045;-68
2022/08/06 07:59:06;;;;;;;11.40;2.08;;;;;;;18.67;54.45;100743.44;5039130;28;20080;-66
2022/08/06 08:01:35;;;;;;;5.70;2.00;;;;;;;18.84;54.05;100745.00;5039639;28;20117;-66
2022/08/06 08:06:46;;;;;;;5.68;2.00;;;;;;;18.05;55.67;100748.47;5032875;28;20583;-67
2022/08/06 08:09:15;;;;;;;3.88;2.10;;;;;;;17.86;56.14;100753.28;5034126;28;20148;-67
2022/08/06 08:11:43;;;;;;;7.93;2.35;;;;;;;17.72;56.59;100754.13;5032508;28;20054;-67
2022/08/06 08:14:11;;;;;;;7.85;2.75;;;;;;;17.64;57.19;100754.59;5032674;28;20588;-66
2022/08/06 08:16:41;;;;;;;6.80;2.35;;;;;;;17.59;57.58;100748.72;5034337;28;20065;-66
2022/08/06 08:19:22;;;;;;;6.00;3.65;;;;;;;17.53;56.49;100752.63;5031866;28;20116;-66
2022/08/06 08:21:49;;;;;;;5.85;3.08;;;;;;;17.58;56.78;100753.19;5031975;28;20049;-67
2022/08/06 08:24:16;;;;;;;7.63;3.53;;;;;;;17.50;57.08;100755.50;5030153;28;20064;-67
2022/08/06 08:26:43;;;;;;;7.97;1.90;;;;;;;17.57;56.38;100750.63;5027614;28;20096;-67
2022/08/06 08:29:10;;;;;;;5.78;2.60;;;;;;;17.53;56.45;100749.13;5031698;28;20493;-65
2022/08/06 08:31:37;;;;;;;8.32;2.40;;;;;;;17.43;57.00;100745.31;5031541;28;20060;-67
2022/08/06 08:34:05;;;;;;;8.52;2.38;;;;;;;17.30;56.10;100748.75;5031090;28;20053;-67
2022/08/06 08:36:32;;;;;;;5.07;2.17;;;;;;;17.24;56.54;100750.94;5031406;28;20401;-67
2022/08/06 08:38:59;;;;;;;4.82;2.03;;;;;;;17.31;56.77;100750.44;5022653;28;20049;-67
2022/08/06 08:41:32;;;;;;;10.93;2.50;;;;;;;17.35;56.78;100743.97;5011694;28;20679;-68
2022/08/06 08:44:03;;;;;;;6.07;2.63;;;;;;;17.37;56.84;100747.38;5011158;28;20140;-69
2022/08/06 08:46:33;;;;;;;9.48;2.53;;;;;;;17.25;56.95;100747.28;5011497;28;20050;-66
2022/08/06 08:49:03;;;;;;;3.90;2.33;;;;;;;17.26;57.23;100752.53;5011848;28;20052;-65
2022/08/06 08:51:33;;;;;;;6.82;2.20;;;;;;;17.37;56.54;100742.06;5023173;28;20053;-67
2022/08/06 08:54:01;;;;;;;5.15;2.47;;;;;;;17.35;55.68;100735.09;5038598;28;20079;-65
2022/08/06 08:56:27;;;;;;;5.72;1.75;;;;;;;17.22;55.56;100742.16;5041030;28;20742;-66
2022/08/06 08:58:55;;;;;;;6.38;2.13;;;;;;;17.30;55.77;100746.09;5038905;28;20037;-66
2022/08/06 09:01:22;;;;;;;5.07;2.22;;;;;;;17.52;56.06;100739.38;5039823;28;20055;-67
2022/08/06 09:03:49;;;;;;;2.17;1.40;;;;;;;18.06;54.07;100741.31;5040743;28;20155;-67
2022/08/06 09:06:16;;;;;;;6.72;2.38;;;;;;;18.44;53.34;100744.13;5040103;28;20045;-51
2022/08/06 09:08:46;;;;;;;7.43;2.50;;;;;;;18.58;51.89;100745.88;5037039;28;20515;-54
2022/08/06 09:11:13;;;;;;;3.95;2.08;;;;;;;18.48;51.79;100752.78;5038568;28;20136;-51
2022/08/06 09:13:40;;;;;;;9.75;2.08;;;;;;;18.69;50.40;100756.69;5032681;28;20052;-55
2022/08/06 09:16:07;;;;;;;9.65;3.08;;;;;;;18.51;51.30;100758.81;5023240;28;20038;-55
2022/08/06 09:18:34;;;;;;;5.80;2.15;;;;;;;18.54;51.55;100758.59;5030448;28;20124;-51
2022/08/06 09:21:01;;;;;;;2.95;1.70;;;;;;;19.38;49.05;100751.09;5030489;28;20475;-58
2022/08/06 09:23:28;;;;;;;4.00;1.63;;;;;;;20.02;46.81;100748.31;5030449;28;20050;-53
2022/08/06 09:25:56;;;;;;;5.90;2.50;;;;;;;20.46;49.10;100753.03;5033737;28;20043;-50
2022/08/06 09:28:32;;;;;;;4.20;2.38;;;;;;;19.98;47.03;100749.50;5014306;28;20520;-47
2022/08/06 09:31:01;;;;;;;4.60;1.80;;;;;;;20.07;47.41;100752.38;5030856;28;20056;-49
2022/08/06 09:33:28;;;;;;;6.35;2.08;;;;;;;20.32;47.92;100756.75;5030491;28;20052;-50
2022/08/06 09:36:02;;;;;;;7.22;2.30;;;;;;;19.80;48.04;100744.53;5030011;28;20054;-52
2022/08/06 09:38:29;;;;;;;5.57;2.03;;;;;;;19.48;48.04;100747.66;5030767;28;20088;-49
2022/08/06 09:41:11;;;;;;;5.28;1.80;;;;;;;19.44;48.15;100743.50;5030092;28;20061;-68
2022/08/06 09:43:39;;;;;;;4.22;1.70;;;;;;;19.32;48.80;100752.41;5029762;28;20409;-69
2022/08/06 09:46:07;;;;;;;5.80;1.70;;;;;;;19.05;49.25;100753.38;5029864;28;20128;-68
2022/08/06 09:48:34;;;;;;;5.40;2.22;;;;;;;19.88;45.23;100754.66;5030460;28;20060;-68
2022/08/06 09:51:00;;;;;;;4.85;1.90;;;;;;;19.91;45.77;100752.66;5030333;28;20056;-68
2022/08/06 09:53:27;;;;;;;4.65;2.20;;;;;;;21.26;42.73;100751.44;5030142;28;20072;-69
2022/08/06 09:55:56;;;;;;;4.30;2.33;;;;;;;22.56;41.40;100745.41;5029206;28;20049;-69
2022/08/06 09:58:35;;;;;;;4.32;2.45;;;;;;;23.47;39.42;100744.72;5030385;28;20054;-68
2022/08/06 10:01:15;;;;;;;8.98;4.05;;;;;;;24.55;36.19;100743.97;5029594;28;20516;-70
2022/08/06 10:03:43;;;;;;;5.63;2.13;;;;;;;25.27;34.77;100739.88;5030307;28;20420;-70
2022/08/06 10:06:16;;;;;;;3.70;1.90;;;;;;;25.52;33.13;100740.22;5029641;28;20063;-68
2022/08/06 10:08:44;;;;;;;5.77;1.93;;;;;;;24.96;33.41;100733.03;5013118;28;20492;-69
2022/08/06 10:11:11;;;;;;;15.90;2.85;;;;;;;24.71;34.49;100740.72;5026355;28;20085;-69
2022/08/06 10:13:39;;;;;;;5.88;2.97;;;;;;;25.12;33.70;100741.34;5029636;28;20055;-69
2022/08/06 10:16:17;;;;;;;4.78;2.90;;;;;;;25.69;33.18;100738.56;5022892;28;20045;-69
2022/08/06 10:18:46;;;;;;;6.60;3.08;;;;;;;26.31;32.63;100739.63;5027084;28;20128;-69
2022/08/06 10:21:15;;;;;;;6.32;2.75;;;;;;;27.12;30.60;100735.03;5031177;28;20092;-68
2022/08/06 10:23:44;;;;;;;4.22;2.10;;;;;;;27.07;30.65;100738.22;5029940;28;20088;-67
2022/08/06 10:26:14;;;;;;;8.45;4.93;;;;;;;26.18;32.55;100743.72;5029824;28;20038;-69
2022/08/06 10:28:45;;;;;;;8.43;3.03;;;;;;;24.73;34.16;100737.88;5029796;28;20417;-69
2022/08/06 10:31:13;;;;;;;3.78;1.80;;;;;;;23.89;35.47;100743.75;5026237;28;20046;-68
2022/08/06 10:33:49;;;;;;;2.95;1.60;;;;;;;23.46;36.94;100750.25;5029266;28;20689;-69
2022/08/06 10:36:21;;;;;;;8.10;2.15;;;;;;;22.83;38.10;100740.38;5028335;28;20042;-67
2022/08/06 10:38:51;;;;;;;6.80;2.40;;;;;;;22.86;38.37;100742.78;5029520;28;20132;-69
2022/08/06 10:41:19;;;;;;;9.52;3.88;;;;;;;22.73;37.48;100736.75;5029456;28;20055;-69
2022/08/06 10:43:47;;;;;;;3.67;2.08;;;;;;;22.06;36.73;100741.41;5029605;28;20053;-68
2022/08/06 10:46:15;;;;;;;5.68;3.22;;;;;;;21.36;38.39;100741.69;5028764;28;20045;-68
2022/08/06 10:48:43;;;;;;;5.38;2.00;;;;;;;21.01;39.32;100732.75;5033173;28;20049;-68
2022/08/06 10:51:12;;;;;;;6.05;2.38;;;;;;;21.35;38.92;100743.53;5035813;28;20088;-69
2022/08/06 10:53:40;;;;;;;2.85;1.73;;;;;;;22.08;37.34;100727.88;5035981;28;20049;-69
2022/08/06 10:56:08;;;;;;;3.35;1.42;;;;;;;23.35;35.76;100727.78;5035071;28;20494;-69
2022/08/06 10:58:37;;;;;;;7.97;2.33;;;;;;;23.58;35.73;100728.47;5035903;28;20057;-68
2022/08/06 11:01:07;;;;;;;3.55;1.90;;;;;;;23.32;36.47;100729.91;5035596;28;20573;-68
2022/08/06 11:03:45;;;;;;;3.20;2.08;;;;;;;23.34;35.82;100722.56;5035807;28;20059;-68
2022/08/06 11:06:31;;;;;;;2.83;1.50;;;;;;;23.28;35.68;100718.59;5031888;28;20383;-68
2022/08/06 11:09:06;;;;;;;3.83;1.50;;;;;;;22.38;35.06;100724.47;5035039;28;20046;-68
2022/08/06 11:11:49;;;;;;;3.70;1.48;;;;;;;22.24;36.16;100727.47;5035683;28;20049;-67
2022/08/06 11:14:16;;;;;;;4.63;1.45;;;;;;;22.37;35.93;100716.53;5035268;28;20053;-68
2022/08/06 11:16:55;;;;;;;3.10;1.50;;;;;;;22.18;34.73;100719.91;5035241;28;20387;-67
2022/08/06 11:19:38;;;;;;;5.13;2.20;;;;;;;22.25;35.44;100713.91;5040377;28;20138;-66
2022/08/06 11:22:05;;;;;;;4.40;2.10;;;;;;;22.08;36.55;100711.75;5042642;28;20053;-68
2022/08/06 11:24:32;;;;;;;1.95;1.02;;;;;;;21.85;37.75;100719.00;5042797;28;20144;-67
2022/08/06 11:26:59;;;;;;;5.55;1.42;;;;;;;21.43;38.02;100718.81;5035848;28;20405;-67
2022/08/06 11:29:26;;;;;;;3.25;1.05;;;;;;;21.61;36.79;100714.66;5035805;28;20063;-67
2022/08/06 11:31:54;;;;;;;2.03;1.05;;;;;;;21.62;37.69;100707.44;5035629;28;20052;-68
2022/08/06 11:34:21;;;;;;;2.67;1.35;;;;;;;21.56;36.07;100719.53;5035144;28;20084;-69
2022/08/06 11:36:52;;;;;;;3.03;1.40;;;;;;;21.10;35.85;100712.44;5035493;28;20497;-68
2022/08/06 11:39:21;;;;;;;8.10;3.22;;;;;;;20.62;35.02;100717.09;5035767;28;20053;-67